Time;durP1;ratioP1;P1;durP2;ratioP2;P2;SDS_P1;SDS_P2;PMS_P1;PMS_P2;Temp;Humidity;BMP_temperature;BMP_pressure;BME280_temperature;BME280_humidity;BME280_pressure;Samples;Min_cycle;Max_cycle;Signal;HPM_P1;HPM_P2
2021/12/12 00:01:12;;;;;;;12.05;4.38;;;2.50;43.20;;;;;;5038053;28;20505;-48
2021/12/12 00:03:47;;;;;;;4.53;3.38;;;2.50;43.20;;;;;;5053768;28;20175;-48
2021/12/12 00:06:22;;;;;;;9.43;4.40;;;2.50;43.20;;;;;;5053673;28;20159;-48
2021/12/12 00:08:55;;;;;;;11.27;5.32;;;2.50;43.20;;;;;;5053745;28;20175;-48
2021/12/12 00:11:26;;;;;;;4.78;3.47;;;2.40;42.80;;;;;;5054067;28;20183;-49
2021/12/12 00:14:01;;;;;;;6.82;5.47;;;2.40;43.00;;;;;;5054620;28;20184;-48
2021/12/12 00:16:29;;;;;;;9.45;3.47;;;2.40;43.10;;;;;;5053918;28;20500;-48
2021/12/12 00:18:57;;;;;;;3.85;2.67;;;2.40;43.20;;;;;;5053764;28;20159;-48
2021/12/12 00:21:27;;;;;;;6.15;4.30;;;2.40;43.00;;;;;;5053548;28;20173;-48
2021/12/12 00:23:56;;;;;;;3.63;3.38;;;2.40;43.10;;;;;;5053472;28;20167;-48
2021/12/12 00:26:23;;;;;;;7.97;2.60;;;2.30;42.60;;;;;;5054427;28;20179;-48
2021/12/12 00:28:51;;;;;;;2.88;2.50;;;2.20;42.80;;;;;;5054656;28;20608;-48
2021/12/12 00:31:22;;;;;;;3.83;2.20;;;2.20;43.00;;;;;;5054475;28;20181;-49
2021/12/12 00:33:53;;;;;;;17.00;3.13;;;2.20;42.80;;;;;;5053496;28;20183;-49
2021/12/12 00:36:21;;;;;;;12.05;4.88;;;2.20;42.90;;;;;;5053358;28;20250;-48
2021/12/12 00:38:56;;;;;;;1.70;1.27;;;2.10;42.80;;;;;;5054325;28;20308;-48
2021/12/12 00:41:35;;;;;;;9.35;4.07;;;2.10;42.90;;;;;;5053332;28;20621;-48
2021/12/12 00:44:03;;;;;;;9.27;4.70;;;2.10;43.00;;;;;;5037446;28;20223;-48
2021/12/12 00:46:30;;;;;;;3.25;2.35;;;2.10;43.00;;;;;;5054415;28;20175;-48
2021/12/12 00:48:58;;;;;;;6.05;4.50;;;2.00;42.60;;;;;;5054321;28;20186;-48
2021/12/12 00:51:33;;;;;;;5.57;3.28;;;2.00;42.70;;;;;;5054570;28;20549;-48
2021/12/12 00:54:00;;;;;;;11.32;5.45;;;2.00;42.70;;;;;;5056932;28;20184;-48
2021/12/12 00:56:28;;;;;;;6.50;4.25;;;1.90;42.90;;;;;;5057794;28;20178;-48
2021/12/12 00:58:55;;;;;;;5.13;2.45;;;1.90;43.00;;;;;;5040330;28;20508;-49
2021/12/12 01:01:29;;;;;;;4.70;2.78;;;1.90;43.10;;;;;;5040326;28;20220;-48
2021/12/12 01:04:33;;;;;;;3.88;2.08;;;2.00;43.30;;;;;;5041253;28;20179;-49
2021/12/12 01:07:05;;;;;;;7.63;4.53;;;2.00;43.00;;;;;;5036220;28;20215;-49
2021/12/12 01:09:37;;;;;;;4.93;3.05;;;2.00;43.00;;;;;;5036427;28;20187;-48
2021/12/12 01:12:08;;;;;;;4.18;2.40;;;2.00;43.10;;;;;;5019847;28;20541;-48
2021/12/12 01:14:42;;;;;;;5.43;3.17;;;2.10;43.40;;;;;;5019985;28;20199;-48
2021/12/12 01:17:23;;;;;;;5.40;2.95;;;2.10;43.40;;;;;;5019131;28;20189;-48
2021/12/12 01:20:00;;;;;;;5.18;3.03;;;2.20;43.50;;;;;;5020456;28;20232;-48
2021/12/12 01:22:34;;;;;;;7.18;4.03;;;2.30;43.70;;;;;;5035887;28;20199;-48
2021/12/12 01:25:17;;;;;;;3.20;1.92;;;2.30;43.70;;;;;;5035940;28;20171;-48
2021/12/12 01:27:44;;;;;;;4.65;2.33;;;2.40;43.50;;;;;;5004896;28;20561;-49
2021/12/12 01:30:13;;;;;;;5.22;3.15;;;2.40;43.40;;;;;;5035608;28;20179;-48
2021/12/12 01:32:41;;;;;;;9.63;3.38;;;2.40;43.40;;;;;;5003652;28;20180;-49
2021/12/12 01:35:15;;;;;;;4.40;2.97;;;2.50;43.70;;;;;;5018846;28;20218;-49
2021/12/12 01:38:51;;;;;;;8.15;3.17;;;2.50;43.70;;;;;;4988175;28;20169;-49
2021/12/12 01:40:34;;;;;;;2.08;1.88;;;2.50;43.30;;;;;;5015944;28;20187;-50
2021/12/12 01:43:30;;;;;;;4.90;3.10;;;2.50;43.30;;;;;;5054168;28;20168;-49
2021/12/12 01:46:18;;;;;;;4.38;3.97;;;2.50;43.40;;;;;;5034953;28;20226;-49
2021/12/12 01:49:04;;;;;;;4.57;1.50;;;2.50;43.40;;;;;;5037147;28;20171;-48
2021/12/12 01:51:32;;;;;;;3.40;2.67;;;2.50;43.50;;;;;;5036798;28;20158;-49
2021/12/12 01:54:04;;;;;;;8.80;5.93;;;2.50;43.50;;;;;;5019460;28;20208;-48
2021/12/12 01:56:49;;;;;;;5.57;3.80;;;2.50;43.90;;;;;;5036782;28;20473;-48
2021/12/12 01:59:20;;;;;;;2.75;2.15;;;2.50;43.70;;;;;;5020127;28;20539;-49
2021/12/12 02:01:53;;;;;;;2.58;1.48;;;2.50;43.90;;;;;;5019083;28;20160;-49
2021/12/12 02:04:27;;;;;;;6.63;4.03;;;2.50;43.80;;;;;;5003881;28;20590;-49
2021/12/12 02:06:55;;;;;;;1.70;1.17;;;2.50;43.80;;;;;;5019500;28;20180;-49
2021/12/12 02:09:24;;;;;;;6.75;4.38;;;2.50;43.70;;;;;;5003180;28;20609;-49
2021/12/12 02:11:58;;;;;;;4.65;2.13;;;2.40;43.60;;;;;;5019340;28;20183;-49
2021/12/12 02:14:28;;;;;;;7.80;3.20;;;2.40;43.80;;;;;;5018843;28;20203;-49
2021/12/12 02:17:08;;;;;;;3.45;2.60;;;2.40;43.90;;;;;;5003664;28;20603;-49
2021/12/12 02:19:48;;;;;;;4.93;2.03;;;2.50;43.90;;;;;;5002915;28;20234;-49
2021/12/12 02:22:44;;;;;;;7.15;3.42;;;2.40;43.70;;;;;;5020684;28;20554;-49
2021/12/12 02:36:19;;;;;;;6.97;2.40;;;2.40;43.90;;;;;;5021539;28;20218;-48
2021/12/12 02:38:50;;;;;;;2.22;1.17;;;2.30;43.90;;;;;;5018893;28;20198;-48
2021/12/12 02:41:20;;;;;;;6.40;3.05;;;2.30;43.90;;;;;;5018789;28;20261;-48
2021/12/12 02:43:56;;;;;;;2.95;2.28;;;2.30;43.90;;;;;;5031031;28;20678;-49
2021/12/12 02:46:29;;;;;;;3.80;2.35;;;2.40;44.10;;;;;;5054938;28;20168;-48
2021/12/12 02:49:06;;;;;;;3.08;2.88;;;2.40;44.40;;;;;;5039172;28;20226;-48
2021/12/12 02:51:36;;;;;;;3.80;1.25;;;2.50;44.40;;;;;;5055634;28;20170;-48
2021/12/12 02:54:04;;;;;;;6.80;3.63;;;2.50;44.40;;;;;;5054714;28;20550;-48
2021/12/12 02:56:36;;;;;;;4.63;2.80;;;2.50;44.50;;;;;;5054609;28;20167;-48
2021/12/12 02:59:13;;;;;;;8.05;3.33;;;2.60;44.30;;;;;;5055516;28;20147;-48
2021/12/12 03:01:52;;;;;;;2.28;1.58;;;2.60;44.10;;;;;;5054736;28;20165;-48
2021/12/12 03:04:20;;;;;;;4.72;3.90;;;2.60;44.10;;;;;;5055511;28;20151;-48
2021/12/12 03:06:48;;;;;;;9.27;3.47;;;2.60;44.10;;;;;;5054460;28;20172;-48
2021/12/12 03:09:21;;;;;;;6.55;3.00;;;2.60;44.10;;;;;;5054431;28;20167;-48
2021/12/12 03:11:52;;;;;;;2.47;1.98;;;2.60;44.10;;;;;;5054793;28;20172;-48
2021/12/12 03:14:20;;;;;;;9.13;3.50;;;2.60;44.10;;;;;;5053821;28;20202;-48
2021/12/12 03:16:48;;;;;;;5.72;3.05;;;2.60;44.00;;;;;;5055351;28;20172;-48
2021/12/12 03:19:20;;;;;;;5.25;2.55;;;2.60;44.10;;;;;;5055350;28;20161;-48
2021/12/12 03:21:49;;;;;;;6.13;5.05;;;2.60;44.30;;;;;;5038176;28;20172;-48
2021/12/12 03:24:20;;;;;;;4.22;2.70;;;2.60;44.10;;;;;;5055295;28;20489;-49
2021/12/12 03:26:56;;;;;;;3.55;1.98;;;2.60;44.10;;;;;;5054484;28;20264;-48
2021/12/12 03:29:25;;;;;;;2.83;2.03;;;2.60;44.10;;;;;;5054543;28;20180;-48
2021/12/12 03:31:57;;;;;;;1.85;1.55;;;2.60;44.00;;;;;;5055135;28;20168;-48
2021/12/12 03:34:30;;;;;;;6.78;2.85;;;2.60;44.00;;;;;;5054010;28;20203;-48
2021/12/12 03:36:58;;;;;;;2.05;1.52;;;2.60;44.10;;;;;;5054154;28;20298;-48
2021/12/12 03:39:31;;;;;;;6.60;2.78;;;2.60;44.30;;;;;;5054969;28;20167;-48
2021/12/12 03:42:01;;;;;;;2.75;1.67;;;2.60;44.20;;;;;;5037970;28;20151;-49
2021/12/12 03:44:33;;;;;;;6.88;2.08;;;2.60;44.30;;;;;;5053831;28;20205;-48
2021/12/12 03:47:07;;;;;;;8.60;4.18;;;2.60;44.20;;;;;;5054148;28;20591;-48
2021/12/12 03:49:37;;;;;;;2.33;1.23;;;2.60;44.20;;;;;;5054956;28;20170;-48
2021/12/12 03:52:10;;;;;;;3.63;1.17;;;2.60;44.20;;;;;;5053897;28;20182;-48
2021/12/12 03:54:39;;;;;;;6.72;1.98;;;2.60;44.20;;;;;;5053728;28;20190;-49
2021/12/12 03:57:08;;;;;;;8.23;3.00;;;2.50;44.10;;;;;;5054616;28;20163;-49
2021/12/12 03:59:35;;;;;;;5.43;1.90;;;2.60;44.00;;;;;;5054653;28;20233;-48
2021/12/12 04:02:05;;;;;;;4.00;3.60;;;2.60;44.10;;;;;;5053733;28;20176;-48
2021/12/12 04:04:36;;;;;;;9.60;1.58;;;2.60;44.20;;;;;;5053726;28;20551;-49
2021/12/12 04:07:09;;;;;;;5.78;3.08;;;2.60;44.10;;;;;;5037773;28;20217;-48
2021/12/12 04:09:38;;;;;;;7.47;2.50;;;2.60;44.00;;;;;;5053908;28;20171;-49
2021/12/12 04:12:09;;;;;;;7.53;2.55;;;2.50;43.90;;;;;;5054525;28;20168;-49
2021/12/12 04:14:37;;;;;;;2.58;2.38;;;2.50;43.70;;;;;;5054511;28;20514;-48
2021/12/12 04:17:11;;;;;;;4.13;2.25;;;2.50;43.60;;;;;;5053780;28;20198;-48
2021/12/12 04:19:41;;;;;;;3.70;1.70;;;2.40;43.30;;;;;;5037839;28;20197;-48
2021/12/12 04:22:08;;;;;;;2.80;2.60;;;2.40;43.20;;;;;;5054446;28;20290;-48
2021/12/12 04:24:40;;;;;;;1.95;1.25;;;2.30;43.20;;;;;;5053553;28;20168;-48
2021/12/12 04:27:09;;;;;;;3.92;3.20;;;2.30;44.10;;;;;;5058677;28;20166;-48
2021/12/12 04:29:40;;;;;;;3.85;1.10;;;2.30;43.30;;;;;;5058467;28;20170;-48
2021/12/12 04:32:12;;;;;;;4.80;1.88;;;2.20;43.30;;;;;;5057439;28;20600;-48
2021/12/12 04:34:44;;;;;;;6.82;4.90;;;2.20;43.40;;;;;;5057520;28;20245;-48
2021/12/12 04:37:12;;;;;;;2.55;1.13;;;2.20;43.50;;;;;;5057383;28;20239;-48
2021/12/12 04:39:42;;;;;;;1.30;0.77;;;2.20;43.60;;;;;;5058076;28;20249;-48
2021/12/12 04:42:24;;;;;;;6.50;3.30;;;2.20;43.60;;;;;;5057357;28;20243;-48
2021/12/12 04:44:55;;;;;;;3.65;1.92;;;2.20;43.40;;;;;;5041025;28;20217;-48
2021/12/12 04:50:55;;;;;;;1.85;1.73;;;2.30;43.90;;;;;;5057503;28;20251;-48
2021/12/12 04:53:32;;;;;;;4.15;3.13;;;2.20;43.40;;;;;;5057096;28;20170;-48
2021/12/12 04:56:19;;;;;;;16.75;2.35;;;2.20;43.60;;;;;;5057879;28;20181;-48
2021/12/12 04:59:12;;;;;;;7.65;2.28;;;2.20;43.80;;;;;;5058512;28;20163;-49
2021/12/12 05:01:55;;;;;;;5.68;2.75;;;2.20;43.90;;;;;;5057116;28;20161;-49
2021/12/12 05:04:32;;;;;;;1.95;1.05;;;2.30;44.00;;;;;;5057082;28;20155;-49
2021/12/12 05:07:10;;;;;;;8.63;4.50;;;2.30;44.00;;;;;;5056956;28;20178;-48
2021/12/12 05:09:53;;;;;;;2.85;1.40;;;2.40;44.00;;;;;;5056906;28;20171;-48
2021/12/12 05:12:28;;;;;;;3.80;2.05;;;2.40;44.10;;;;;;5057490;28;20463;-49
2021/12/12 05:15:06;;;;;;;2.80;2.30;;;2.50;44.20;;;;;;5057416;28;20195;-49
2021/12/12 05:17:49;;;;;;;3.53;1.80;;;2.50;44.30;;;;;;5056676;28;20623;-48
2021/12/12 05:20:47;;;;;;;6.45;2.03;;;2.60;44.50;;;;;;5041733;28;20167;-48
2021/12/12 05:23:19;;;;;;;1.02;0.52;;;2.60;44.70;;;;;;5056629;28;20496;-48
2021/12/12 05:26:09;;;;;;;4.40;2.05;;;2.60;44.80;;;;;;5056618;28;20298;-48
2021/12/12 05:29:08;;;;;;;5.95;3.58;;;2.70;45.00;;;;;;5057181;28;20170;-48
2021/12/12 05:31:38;;;;;;;6.15;3.05;;;2.70;45.50;;;;;;5056557;28;20150;-49
2021/12/12 05:34:07;;;;;;;2.28;1.48;;;2.70;45.00;;;;;;5056252;28;20629;-49
2021/12/12 05:36:36;;;;;;;1.20;0.75;;;2.80;45.00;;;;;;5055535;28;20619;-49
2021/12/12 05:39:05;;;;;;;3.83;2.05;;;2.80;44.90;;;;;;5056346;28;20171;-48
2021/12/12 05:41:33;;;;;;;6.30;2.58;;;2.90;45.00;;;;;;5039684;28;20169;-49
2021/12/12 05:44:01;;;;;;;3.05;1.45;;;2.90;45.00;;;;;;5047242;28;20676;-48
2021/12/12 05:46:29;;;;;;;6.05;2.83;;;2.90;44.90;;;;;;5019683;28;20314;-49
2021/12/12 05:49:00;;;;;;;2.20;2.00;;;3.00;44.90;;;;;;5019758;28;20542;-48
2021/12/12 05:51:28;;;;;;;3.78;2.03;;;3.00;44.90;;;;;;5019879;28;20508;-48
2021/12/12 05:53:56;;;;;;;6.43;1.77;;;3.10;44.90;;;;;;5037165;28;20199;-48
2021/12/12 05:56:33;;;;;;;3.90;3.50;;;3.10;45.00;;;;;;5037455;28;20169;-48
2021/12/12 05:59:02;;;;;;;2.55;1.98;;;3.10;44.80;;;;;;5020459;28;20629;-48
2021/12/12 06:01:31;;;;;;;4.57;2.58;;;3.10;44.80;;;;;;5036589;28;20179;-48
2021/12/12 06:03:59;;;;;;;2.17;1.20;;;3.10;44.80;;;;;;5019591;28;20259;-48
2021/12/12 06:06:32;;;;;;;5.35;2.10;;;3.10;45.00;;;;;;5036586;28;20568;-48
2021/12/12 06:09:04;;;;;;;3.78;3.45;;;3.10;44.90;;;;;;5036533;28;20157;-48
2021/12/12 06:11:34;;;;;;;1.77;1.00;;;3.00;44.80;;;;;;5036585;28;20254;-48
2021/12/12 06:14:03;;;;;;;9.63;1.73;;;3.00;44.80;;;;;;5036382;28;20189;-48
2021/12/12 06:16:33;;;;;;;4.50;1.63;;;3.00;44.80;;;;;;5036547;28;20599;-48
2021/12/12 06:19:11;;;;;;;6.68;2.65;;;3.00;44.70;;;;;;5018835;28;20169;-48
2021/12/12 06:21:39;;;;;;;4.57;2.30;;;3.00;45.10;;;;;;5019316;28;20187;-49
2021/12/12 06:24:07;;;;;;;3.15;2.90;;;3.00;44.70;;;;;;5019231;28;20498;-48
2021/12/12 06:26:36;;;;;;;9.48;2.67;;;2.90;44.80;;;;;;5036290;28;20173;-49
2021/12/12 06:29:04;;;;;;;4.68;2.70;;;2.90;44.80;;;;;;5002960;28;20170;-49
2021/12/12 06:31:36;;;;;;;4.97;1.90;;;2.80;44.80;;;;;;5019016;28;20175;-48
2021/12/12 06:34:04;;;;;;;4.43;1.08;;;2.80;44.90;;;;;;5018730;28;20390;-48
2021/12/12 06:36:32;;;;;;;8.70;2.95;;;2.80;44.80;;;;;;5036309;28;20176;-48
2021/12/12 06:39:01;;;;;;;2.13;1.00;;;2.80;45.00;;;;;;5002600;28;20168;-49
2021/12/12 06:41:29;;;;;;;11.77;4.63;;;2.70;44.90;;;;;;5036297;28;20222;-49
2021/12/12 06:43:56;;;;;;;2.83;2.50;;;2.70;45.10;;;;;;5032736;28;20532;-48
2021/12/12 06:46:24;;;;;;;4.10;1.60;;;2.60;45.20;;;;;;5055364;28;20167;-49
2021/12/12 06:48:53;;;;;;;3.92;2.42;;;2.60;45.10;;;;;;5055645;28;20168;-49
2021/12/12 06:51:21;;;;;;;3.65;2.58;;;2.60;45.10;;;;;;5055661;28;20170;-49
2021/12/12 06:53:49;;;;;;;1.52;1.35;;;2.60;45.00;;;;;;5055504;28;20188;-49
2021/12/12 06:56:19;;;;;;;7.65;2.88;;;2.60;45.10;;;;;;5055546;28;20255;-49
2021/12/12 06:58:48;;;;;;;2.85;1.52;;;2.60;44.90;;;;;;5054663;28;20225;-49
2021/12/12 07:01:22;;;;;;;1.10;0.75;;;2.60;44.90;;;;;;5055631;28;20182;-49
2021/12/12 07:03:51;;;;;;;1.90;1.25;;;2.60;44.90;;;;;;5055645;28;20154;-49
2021/12/12 07:06:21;;;;;;;1.35;0.50;;;2.70;45.00;;;;;;5054941;28;20168;-49
2021/12/12 07:08:49;;;;;;;8.68;1.95;;;2.70;44.80;;;;;;5054487;28;20164;-49
2021/12/12 07:11:19;;;;;;;3.33;1.83;;;2.70;44.90;;;;;;5054639;28;20206;-48
2021/12/12 07:13:48;;;;;;;2.85;2.17;;;2.70;44.70;;;;;;5055388;28;20233;-48
2021/12/12 07:16:17;;;;;;;1.50;1.35;;;2.70;44.70;;;;;;5038439;28;20191;-49
2021/12/12 07:18:47;;;;;;;2.08;1.30;;;2.60;45.40;;;;;;5055259;28;20491;-49
2021/12/12 07:21:16;;;;;;;6.07;3.08;;;2.60;44.70;;;;;;5055273;28;20167;-49
2021/12/12 07:23:47;;;;;;;4.03;1.85;;;2.70;44.90;;;;;;5038039;28;20172;-49
2021/12/12 07:26:17;;;;;;;3.20;1.98;;;2.70;45.50;;;;;;5055533;28;20514;-49
2021/12/12 07:28:46;;;;;;;6.95;3.10;;;2.70;44.70;;;;;;5054969;28;20560;-48
2021/12/12 07:31:21;;;;;;;5.45;2.08;;;2.80;44.80;;;;;;5054040;28;20167;-49
2021/12/12 07:33:52;;;;;;;5.50;3.63;;;2.80;44.70;;;;;;5054886;28;20187;-49
2021/12/12 07:36:20;;;;;;;5.30;3.05;;;2.80;44.60;;;;;;5055409;28;20232;-49
2021/12/12 07:38:55;;;;;;;4.82;2.60;;;2.90;44.60;;;;;;5053955;28;20159;-48
2021/12/12 07:41:30;;;;;;;3.92;1.25;;;2.90;44.60;;;;;;5038557;28;20178;-48
2021/12/12 07:43:59;;;;;;;2.20;2.05;;;2.90;44.60;;;;;;5038156;28;20733;-48
2021/12/12 07:46:28;;;;;;;12.25;3.10;;;2.90;44.60;;;;;;5053987;28;20187;-49
2021/12/12 07:48:57;;;;;;;2.95;1.35;;;2.90;44.70;;;;;;5054801;28;20159;-49
2021/12/12 07:51:27;;;;;;;2.38;1.30;;;3.00;44.70;;;;;;5054888;28;20168;-48
2021/12/12 07:53:57;;;;;;;14.65;3.42;;;3.00;44.80;;;;;;5054590;28;20199;-48
2021/12/12 07:56:30;;;;;;;1.40;0.80;;;3.00;45.10;;;;;;5053821;28;20315;-49
2021/12/12 07:58:59;;;;;;;10.30;2.17;;;3.10;44.80;;;;;;5054967;28;20169;-49
2021/12/12 08:01:28;;;;;;;4.10;1.83;;;3.10;44.70;;;;;;5059606;28;20172;-49
2021/12/12 08:03:57;;;;;;;1.60;0.93;;;3.20;44.80;;;;;;5060636;28;20269;-49
2021/12/12 08:06:26;;;;;;;2.08;1.33;;;3.30;44.90;;;;;;5060354;28;20240;-48
2021/12/12 08:08:54;;;;;;;2.88;1.10;;;3.30;44.90;;;;;;5060484;28;20170;-48
2021/12/12 08:11:24;;;;;;;3.92;1.63;;;3.40;44.80;;;;;;5060372;28;20210;-49
2021/12/12 08:13:52;;;;;;;2.55;1.95;;;3.50;44.70;;;;;;5060443;28;20199;-48
2021/12/12 08:16:20;;;;;;;2.83;2.08;;;3.60;44.70;;;;;;5061098;28;20175;-48
2021/12/12 08:18:49;;;;;;;4.90;1.48;;;3.70;44.70;;;;;;5060310;28;20168;-49
2021/12/12 08:21:19;;;;;;;4.72;1.63;;;3.80;44.50;;;;;;5060226;28;20164;-48
2021/12/12 08:23:47;;;;;;;3.75;2.45;;;3.90;44.30;;;;;;5061077;28;20623;-48
2021/12/12 08:26:15;;;;;;;1.60;1.30;;;3.90;44.20;;;;;;5060223;28;20241;-49
2021/12/12 08:28:43;;;;;;;3.25;1.45;;;4.00;44.10;;;;;;5043843;28;20172;-48
2021/12/12 08:31:12;;;;;;;7.35;4.32;;;4.00;43.90;;;;;;5060107;28;20164;-48
2021/12/12 08:33:40;;;;;;;2.47;1.90;;;4.00;43.80;;;;;;5060144;28;20246;-49
2021/12/12 08:36:08;;;;;;;2.55;1.65;;;4.10;43.80;;;;;;5060244;28;20192;-49
2021/12/12 08:38:41;;;;;;;9.40;3.13;;;4.10;43.70;;;;;;5028101;28;20174;-48
2021/12/12 08:41:08;;;;;;;3.22;1.70;;;4.10;43.70;;;;;;5061126;28;20553;-48
2021/12/12 08:43:39;;;;;;;4.35;3.30;;;4.20;43.80;;;;;;5059775;28;20225;-48
2021/12/12 08:46:13;;;;;;;4.90;2.15;;;4.30;43.40;;;;;;5043654;28;20172;-49
2021/12/12 08:48:50;;;;;;;5.95;1.95;;;4.50;43.30;;;;;;5061103;28;20159;-48
2021/12/12 08:51:30;;;;;;;7.05;3.38;;;4.60;43.30;;;;;;5060504;28;20203;-48
2021/12/12 08:54:02;;;;;;;4.00;1.63;;;4.70;43.00;;;;;;5059753;28;20184;-49
2021/12/12 08:56:45;;;;;;;4.90;2.08;;;4.80;43.00;;;;;;5059957;28;20200;-49
2021/12/12 08:59:22;;;;;;;6.10;2.33;;;4.90;42.80;;;;;;5030259;28;20288;-49
2021/12/12 09:01:54;;;;;;;2.65;1.67;;;5.10;42.80;;;;;;5060300;28;20161;-49
2021/12/12 09:04:21;;;;;;;3.30;2.17;;;5.30;42.60;;;;;;5060156;28;20161;-49
2021/12/12 09:06:58;;;;;;;4.70;2.38;;;5.40;42.80;;;;;;5060713;28;20587;-48
2021/12/12 09:09:30;;;;;;;4.53;2.75;;;5.50;41.90;;;;;;5043242;28;20176;-49
2021/12/12 09:12:08;;;;;;;3.47;2.47;;;5.60;41.60;;;;;;5058238;28;20264;-49
2021/12/12 09:15:13;;;;;;;2.97;1.90;;;5.60;42.10;;;;;;5057490;28;20196;-49
2021/12/12 09:17:49;;;;;;;5.85;3.90;;;5.70;42.10;;;;;;5045527;28;20200;-48
2021/12/12 09:20:49;;;;;;;7.60;4.45;;;5.80;42.10;;;;;;5056729;28;20153;-49
2021/12/12 09:23:27;;;;;;;2.58;1.48;;;5.90;41.50;;;;;;5057281;28;20157;-49
2021/12/12 09:26:05;;;;;;;4.75;2.42;;;5.90;42.10;;;;;;5040682;28;20614;-49
2021/12/12 09:28:44;;;;;;;1.60;1.05;;;6.00;41.60;;;;;;5057679;28;20165;-49
2021/12/12 09:31:19;;;;;;;5.35;2.03;;;6.00;41.50;;;;;;5041022;28;20259;-49
2021/12/12 09:34:05;;;;;;;3.70;1.48;;;6.10;41.60;;;;;;5056206;28;20188;-49
2021/12/12 09:36:35;;;;;;;3.08;2.78;;;6.40;41.20;;;;;;5057207;28;20291;-49
2021/12/12 09:39:17;;;;;;;7.70;2.72;;;6.90;40.50;;;;;;5057405;28;20244;-49
2021/12/12 09:42:16;;;;;;;6.05;2.17;;;7.60;40.40;;;;;;5057013;28;20169;-49
2021/12/12 09:45:28;;;;;;;4.35;2.85;;;8.30;39.10;;;;;;5041679;28;20214;-49
2021/12/12 09:51:14;;;;;;;4.65;3.45;;;8.90;38.00;;;;;;4997546;28;20189;-49
2021/12/12 09:51:25;;;;;;;6.32;3.65;;;9.20;36.60;;;;;;5035396;28;20256;-48
2021/12/12 09:54:05;;;;;;;4.97;4.10;;;9.20;36.20;;;;;;5019295;28;20614;-48
2021/12/12 09:56:59;;;;;;;4.35;3.83;;;9.20;36.70;;;;;;5036916;28;20196;-48
2021/12/12 09:59:26;;;;;;;7.03;3.28;;;9.50;37.70;;;;;;5020242;28;20272;-49
2021/12/12 10:02:28;;;;;;;5.97;3.60;;;9.80;36.80;;;;;;5036602;28;20224;-49
2021/12/12 10:05:14;;;;;;;4.40;3.00;;;9.90;35.20;;;;;;5005317;28;20184;-48
2021/12/12 10:07:58;;;;;;;6.60;3.85;;;9.90;35.00;;;;;;5019544;28;20220;-48
2021/12/12 10:10:38;;;;;;;3.97;3.10;;;9.80;35.50;;;;;;5020835;28;20177;-48
2021/12/12 10:13:22;;;;;;;6.53;3.20;;;9.70;35.80;;;;;;5036873;28;20159;-49
2021/12/12 10:16:00;;;;;;;8.65;4.25;;;9.50;35.90;;;;;;5019218;28;20245;-49
2021/12/12 10:18:55;;;;;;;8.00;4.45;;;9.40;35.60;;;;;;5036315;28;20169;-49
2021/12/12 10:21:29;;;;;;;3.85;2.25;;;9.20;35.60;;;;;;5018827;28;20212;-49
2021/12/12 10:24:22;;;;;;;8.13;4.00;;;9.00;36.50;;;;;;5036392;28;20162;-49
2021/12/12 10:27:08;;;;;;;5.22;2.67;;;8.80;36.40;;;;;;5036165;28;20217;-48
2021/12/12 10:29:50;;;;;;;4.95;3.80;;;8.70;36.50;;;;;;5018996;28;20166;-48
2021/12/12 10:32:26;;;;;;;2.58;1.42;;;8.60;37.30;;;;;;5018875;28;20162;-48
2021/12/12 10:35:01;;;;;;;4.05;2.55;;;8.60;37.40;;;;;;5003256;28;20217;-48
2021/12/12 10:37:57;;;;;;;3.53;3.22;;;8.60;37.30;;;;;;5019157;28;20170;-48
2021/12/12 10:40:38;;;;;;;6.32;2.72;;;8.70;37.50;;;;;;5005128;28;20802;-48
2021/12/12 10:43:12;;;;;;;3.92;2.20;;;9.10;37.00;;;;;;5035779;28;20150;-48
2021/12/12 10:45:47;;;;;;;5.60;3.88;;;9.10;36.80;;;;;;5018783;28;20665;-48
2021/12/12 10:48:20;;;;;;;5.70;3.78;;;9.40;36.70;;;;;;5019400;28;20170;-48
2021/12/12 10:51:05;;;;;;;4.78;3.75;;;10.30;36.70;;;;;;5035907;28;20181;-48
2021/12/12 10:54:03;;;;;;;4.70;2.90;;;10.90;36.40;;;;;;5003650;28;20610;-48
2021/12/12 10:56:42;;;;;;;6.40;3.30;;;11.30;35.60;;;;;;5035712;28;20554;-48
2021/12/12 10:59:29;;;;;;;4.75;3.45;;;11.30;34.80;;;;;;5019574;28;20172;-48
2021/12/12 11:02:07;;;;;;;4.88;4.38;;;11.40;34.90;;;;;;5018530;28;20162;-48
2021/12/12 11:04:43;;;;;;;6.15;3.67;;;11.30;35.30;;;;;;5003419;28;20179;-48
2021/12/12 11:07:29;;;;;;;6.53;4.30;;;11.20;35.00;;;;;;5035567;28;20219;-48
2021/12/12 11:10:18;;;;;;;7.35;3.10;;;10.90;35.40;;;;;;5035515;28;20173;-48
2021/12/12 11:13:11;;;;;;;5.05;3.70;;;10.70;35.50;;;;;;5018051;28;20174;-49
2021/12/12 11:16:09;;;;;;;6.47;3.25;;;10.40;35.20;;;;;;5035323;28;20324;-48
2021/12/12 11:18:49;;;;;;;7.68;3.67;;;10.20;35.30;;;;;;5035286;28;20511;-48
2021/12/12 11:21:23;;;;;;;5.70;2.28;;;10.00;35.70;;;;;;5035434;28;20267;-48
2021/12/12 11:24:11;;;;;;;5.50;3.55;;;9.70;35.70;;;;;;5035243;28;20161;-48
2021/12/12 11:26:47;;;;;;;5.65;3.90;;;9.50;36.50;;;;;;5019149;28;20612;-48
2021/12/12 11:29:17;;;;;;;16.02;3.97;;;9.40;36.70;;;;;;5001778;28;20519;-48
2021/12/12 11:31:52;;;;;;;11.43;3.05;;;9.30;37.00;;;;;;5017876;28;20603;-50
2021/12/12 11:34:21;;;;;;;2.92;2.45;;;9.20;36.70;;;;;;5034716;28;20182;-49
2021/12/12 11:36:51;;;;;;;5.40;2.67;;;9.10;37.20;;;;;;5001628;28;20173;-48
2021/12/12 11:39:45;;;;;;;3.03;2.72;;;9.00;37.30;;;;;;5034900;28;20213;-48
2021/12/12 11:42:40;;;;;;;4.55;3.20;;;8.90;37.70;;;;;;5019876;28;20182;-48
2021/12/12 11:45:17;;;;;;;4.78;2.50;;;8.90;38.00;;;;;;5050458;28;20626;-48
2021/12/12 11:48:00;;;;;;;4.05;3.53;;;8.90;37.50;;;;;;5053951;28;20166;-48
2021/12/12 11:50:43;;;;;;;4.72;3.78;;;8.90;37.70;;;;;;5054863;28;20177;-48
2021/12/12 11:53:22;;;;;;;3.90;2.67;;;8.90;38.00;;;;;;5054112;28;20224;-48
2021/12/12 11:56:05;;;;;;;5.80;3.10;;;8.90;38.00;;;;;;5053993;28;20165;-48
2021/12/12 11:58:47;;;;;;;4.63;2.42;;;8.80;38.00;;;;;;5053859;28;20155;-49
2021/12/12 12:01:33;;;;;;;5.60;3.97;;;8.80;37.90;;;;;;5054826;28;20211;-48
2021/12/12 12:04:31;;;;;;;8.55;3.85;;;8.70;38.20;;;;;;5053993;28;20500;-48
2021/12/12 12:07:19;;;;;;;4.15;3.40;;;8.70;38.50;;;;;;5054627;28;20172;-49
2021/12/12 12:10:28;;;;;;;11.18;3.95;;;8.60;38.20;;;;;;5053574;28;20178;-48
2021/12/12 12:13:39;;;;;;;4.40;3.42;;;8.60;38.60;;;;;;5054164;28;20176;-49
2021/12/12 12:16:25;;;;;;;4.82;2.70;;;8.70;39.00;;;;;;5054267;28;20170;-49
2021/12/12 12:19:05;;;;;;;4.90;3.15;;;8.90;38.70;;;;;;5053616;28;20158;-48
2021/12/12 12:21:42;;;;;;;4.47;3.30;;;9.10;38.80;;;;;;5054730;28;20188;-49
2021/12/12 12:24:22;;;;;;;7.68;4.93;;;9.50;38.50;;;;;;5053735;28;20223;-48
2021/12/12 12:27:04;;;;;;;4.55;2.80;;;10.10;37.80;;;;;;5054874;28;20516;-48
2021/12/12 12:29:31;;;;;;;7.28;3.97;;;10.80;36.40;;;;;;5053550;28;20154;-48
2021/12/12 12:32:34;;;;;;;5.22;4.00;;;11.10;35.80;;;;;;5054618;28;20165;-48
2021/12/12 12:35:20;;;;;;;6.13;2.92;;;11.30;35.40;;;;;;5054412;28;20201;-48
2021/12/12 12:38:15;;;;;;;8.23;4.85;;;11.20;35.50;;;;;;5054460;28;20210;-48
2021/12/12 12:41:19;;;;;;;9.18;5.43;;;11.00;35.70;;;;;;5054661;28;20168;-48
2021/12/12 12:44:23;;;;;;;6.10;2.83;;;10.90;36.20;;;;;;5048935;28;20213;-48
2021/12/12 12:47:06;;;;;;;4.80;2.50;;;10.70;36.10;;;;;;5036149;28;20175;-49
2021/12/12 12:50:10;;;;;;;3.55;2.10;;;10.40;36.10;;;;;;5038266;28;20258;-48
2021/12/12 12:53:11;;;;;;;3.83;2.65;;;10.10;36.90;;;;;;5038124;28;20196;-49
2021/12/12 12:56:08;;;;;;;5.53;3.22;;;9.90;37.20;;;;;;5038480;28;20226;-49
2021/12/12 12:59:20;;;;;;;7.15;5.20;;;9.70;37.30;;;;;;5037728;28;20160;-49
2021/12/12 13:01:56;;;;;;;5.03;3.03;;;9.60;37.60;;;;;;5020175;28;20248;-48
2021/12/12 13:04:33;;;;;;;4.43;3.17;;;9.50;37.90;;;;;;5037795;28;20236;-48
2021/12/12 13:07:08;;;;;;;4.78;4.10;;;9.40;38.20;;;;;;5037652;28;20197;-50
2021/12/12 13:09:45;;;;;;;4.90;3.00;;;9.30;38.10;;;;;;5020060;28;20616;-49
2021/12/12 13:12:37;;;;;;;4.85;2.60;;;9.20;38.50;;;;;;5037760;28;20159;-49
2021/12/12 13:15:30;;;;;;;7.05;2.67;;;9.20;38.70;;;;;;5020168;28;20547;-48
2021/12/12 13:18:17;;;;;;;6.22;4.30;;;9.10;38.70;;;;;;5037731;28;20163;-49
2021/12/12 13:21:18;;;;;;;4.55;3.53;;;9.00;38.70;;;;;;5037585;28;20152;-50
2021/12/12 13:24:07;;;;;;;7.93;2.45;;;9.00;38.70;;;;;;5022170;28;20225;-48
2021/12/12 13:26:58;;;;;;;4.68;2.05;;;8.90;38.90;;;;;;5037296;28;20628;-50
2021/12/12 13:29:50;;;;;;;7.53;3.15;;;8.90;39.00;;;;;;5019923;28;20255;-48
2021/12/12 13:32:35;;;;;;;6.72;3.00;;;8.80;39.00;;;;;;5020094;28;20483;-48
2021/12/12 13:35:13;;;;;;;5.70;2.33;;;8.80;39.20;;;;;;5037142;28;20206;-49
2021/12/12 13:37:58;;;;;;;3.88;2.92;;;8.80;39.30;;;;;;5037343;28;20154;-48
2021/12/12 13:40:36;;;;;;;4.53;3.17;;;8.70;39.40;;;;;;5005375;28;20587;-48
2021/12/12 13:43:40;;;;;;;5.28;3.35;;;8.70;39.50;;;;;;5037323;28;20161;-49
2021/12/12 13:47:01;;;;;;;2.30;2.10;;;8.60;39.60;;;;;;5019476;28;20673;-48
2021/12/12 13:49:58;;;;;;;5.63;2.50;;;8.50;39.70;;;;;;4976604;28;20227;-49
2021/12/12 13:52:54;;;;;;;5.13;2.45;;;8.40;39.90;;;;;;4964300;28;20165;-49
2021/12/12 13:55:41;;;;;;;4.85;2.35;;;8.40;40.80;;;;;;4960867;28;20195;-49
2021/12/12 13:58:37;;;;;;;5.65;4.32;;;8.50;40.10;;;;;;4945665;28;20187;-49
2021/12/12 14:01:23;;;;;;;4.78;2.58;;;8.50;40.00;;;;;;4962006;28;20223;-49